sensor_id;sensor_type;location;lat;lon;timestamp;P1;durP1;ratioP1;P2;durP2;ratioP2
23782;SDS011;12071;50.850;4.446;2022-07-01T00:01:19;15.82;;;8.55;;
23782;SDS011;12071;50.850;4.446;2022-07-01T00:03:45;15.30;;;9.10;;
23782;SDS011;12071;50.850;4.446;2022-07-01T00:06:14;15.70;;;8.80;;
23782;SDS011;12071;50.850;4.446;2022-07-01T00:08:40;14.75;;;8.65;;
23782;SDS011;12071;50.850;4.446;2022-07-01T00:11:06;14.05;;;8.98;;
23782;SDS011;12071;50.850;4.446;2022-07-01T00:13:32;13.63;;;9.35;;
23782;SDS011;12071;50.850;4.446;2022-07-01T00:15:57;19.95;;;10.07;;
23782;SDS011;12071;50.850;4.446;2022-07-01T00:18:23;17.42;;;8.85;;
23782;SDS011;12071;50.850;4.446;2022-07-01T00:20:49;13.30;;;8.85;;
23782;SDS011;12071;50.850;4.446;2022-07-01T00:23:16;15.80;;;9.25;;
23782;SDS011;12071;50.850;4.446;2022-07-01T00:25:42;13.52;;;8.60;;
23782;SDS011;12071;50.850;4.446;2022-07-01T00:28:08;16.75;;;8.75;;
23782;SDS011;12071;50.850;4.446;2022-07-01T00:30:34;12.82;;;8.35;;
23782;SDS011;12071;50.850;4.446;2022-07-01T00:33:00;18.00;;;8.82;;
23782;SDS011;12071;50.850;4.446;2022-07-01T00:35:25;17.40;;;8.85;;
23782;SDS011;12071;50.850;4.446;2022-07-01T00:37:51;14.80;;;9.38;;
23782;SDS011;12071;50.850;4.446;2022-07-01T00:40:16;16.95;;;9.85;;
23782;SDS011;12071;50.850;4.446;2022-07-01T00:42:42;17.73;;;10.02;;
23782;SDS011;12071;50.850;4.446;2022-07-01T00:45:09;19.55;;;9.73;;
23782;SDS011;12071;50.850;4.446;2022-07-01T00:47:35;17.73;;;10.18;;
23782;SDS011;12071;50.850;4.446;2022-07-01T00:50:03;24.27;;;10.88;;
23782;SDS011;12071;50.850;4.446;2022-07-01T00:52:32;21.00;;;11.65;;
23782;SDS011;12071;50.850;4.446;2022-07-01T00:54:59;20.75;;;10.80;;
23782;SDS011;12071;50.850;4.446;2022-07-01T00:57:31;18.45;;;10.10;;
23782;SDS011;12071;50.850;4.446;2022-07-01T00:59:58;22.30;;;11.07;;
23782;SDS011;12071;50.850;4.446;2022-07-01T01:02:24;19.08;;;10.30;;
23782;SDS011;12071;50.850;4.446;2022-07-01T01:04:49;20.65;;;10.48;;
23782;SDS011;12071;50.850;4.446;2022-07-01T01:07:15;21.55;;;10.90;;
23782;SDS011;12071;50.850;4.446;2022-07-01T01:09:41;18.80;;;10.70;;
23782;SDS011;12071;50.850;4.446;2022-07-01T01:12:07;22.25;;;10.80;;
23782;SDS011;12071;50.850;4.446;2022-07-01T01:17:14;29.08;;;11.40;;
23782;SDS011;12071;50.850;4.446;2022-07-01T01:19:42;23.10;;;11.55;;
23782;SDS011;12071;50.850;4.446;2022-07-01T01:22:08;26.13;;;11.95;;
23782;SDS011;12071;50.850;4.446;2022-07-01T01:24:35;20.38;;;10.95;;
23782;SDS011;12071;50.850;4.446;2022-07-01T01:27:06;24.77;;;11.13;;
23782;SDS011;12071;50.850;4.446;2022-07-01T01:29:32;22.00;;;10.70;;
23782;SDS011;12071;50.850;4.446;2022-07-01T01:31:59;24.98;;;11.45;;
23782;SDS011;12071;50.850;4.446;2022-07-01T01:34:25;21.83;;;11.35;;
23782;SDS011;12071;50.850;4.446;2022-07-01T01:36:52;28.20;;;11.70;;
23782;SDS011;12071;50.850;4.446;2022-07-01T01:39:18;26.35;;;12.13;;
23782;SDS011;12071;50.850;4.446;2022-07-01T01:41:44;24.42;;;11.75;;
23782;SDS011;12071;50.850;4.446;2022-07-01T01:44:10;25.90;;;12.40;;
23782;SDS011;12071;50.850;4.446;2022-07-01T01:46:36;29.15;;;11.98;;
23782;SDS011;12071;50.850;4.446;2022-07-01T01:49:03;25.90;;;12.45;;
23782;SDS011;12071;50.850;4.446;2022-07-01T01:51:29;25.98;;;12.63;;
23782;SDS011;12071;50.850;4.446;2022-07-01T01:53:55;26.40;;;11.30;;
23782;SDS011;12071;50.850;4.446;2022-07-01T01:56:21;30.95;;;13.20;;
23782;SDS011;12071;50.850;4.446;2022-07-01T01:58:48;25.95;;;12.60;;
23782;SDS011;12071;50.850;4.446;2022-07-01T02:01:15;25.55;;;11.32;;
23782;SDS011;12071;50.850;4.446;2022-07-01T02:03:42;36.53;;;12.43;;
23782;SDS011;12071;50.850;4.446;2022-07-01T02:06:09;28.33;;;12.60;;
23782;SDS011;12071;50.850;4.446;2022-07-01T02:08:39;28.02;;;11.93;;
23782;SDS011;12071;50.850;4.446;2022-07-01T02:11:06;28.58;;;12.23;;
23782;SDS011;12071;50.850;4.446;2022-07-01T02:13:32;27.75;;;11.95;;
23782;SDS011;12071;50.850;4.446;2022-07-01T02:15:58;29.20;;;12.30;;
23782;SDS011;12071;50.850;4.446;2022-07-01T02:18:24;26.20;;;11.68;;
23782;SDS011;12071;50.850;4.446;2022-07-01T02:20:50;28.92;;;12.38;;
23782;SDS011;12071;50.850;4.446;2022-07-01T02:23:16;24.27;;;12.52;;
23782;SDS011;12071;50.850;4.446;2022-07-01T02:25:42;23.38;;;11.15;;
23782;SDS011;12071;50.850;4.446;2022-07-01T02:28:09;25.65;;;12.25;;
23782;SDS011;12071;50.850;4.446;2022-07-01T02:30:34;28.00;;;12.40;;
23782;SDS011;12071;50.850;4.446;2022-07-01T02:33:01;25.17;;;12.52;;
23782;SDS011;12071;50.850;4.446;2022-07-01T02:35:28;28.92;;;12.05;;
23782;SDS011;12071;50.850;4.446;2022-07-01T02:37:54;23.83;;;12.60;;
23782;SDS011;12071;50.850;4.446;2022-07-01T02:40:20;25.20;;;11.50;;
23782;SDS011;12071;50.850;4.446;2022-07-01T02:42:45;26.52;;;12.60;;
23782;SDS011;12071;50.850;4.446;2022-07-01T02:45:11;25.00;;;12.65;;
23782;SDS011;12071;50.850;4.446;2022-07-01T02:47:38;25.30;;;12.75;;
23782;SDS011;12071;50.850;4.446;2022-07-01T02:50:06;29.38;;;12.85;;
23782;SDS011;12071;50.850;4.446;2022-07-01T02:52:34;22.95;;;12.13;;
23782;SDS011;12071;50.850;4.446;2022-07-01T02:55:01;28.13;;;12.88;;
23782;SDS011;12071;50.850;4.446;2022-07-01T02:57:31;31.98;;;12.82;;
23782;SDS011;12071;50.850;4.446;2022-07-01T02:59:56;25.30;;;11.77;;
23782;SDS011;12071;50.850;4.446;2022-07-01T03:02:22;25.58;;;12.35;;
23782;SDS011;12071;50.850;4.446;2022-07-01T03:04:49;28.85;;;13.02;;
23782;SDS011;12071;50.850;4.446;2022-07-01T03:07:16;25.67;;;12.23;;
23782;SDS011;12071;50.850;4.446;2022-07-01T03:09:42;20.25;;;11.27;;
23782;SDS011;12071;50.850;4.446;2022-07-01T03:12:08;25.70;;;11.73;;
23782;SDS011;12071;50.850;4.446;2022-07-01T03:14:51;22.55;;;11.18;;
23782;SDS011;12071;50.850;4.446;2022-07-01T03:17:17;18.45;;;10.27;;
23782;SDS011;12071;50.850;4.446;2022-07-01T03:19:44;19.80;;;10.63;;
23782;SDS011;12071;50.850;4.446;2022-07-01T03:22:10;18.02;;;11.02;;
23782;SDS011;12071;50.850;4.446;2022-07-01T03:24:36;18.45;;;10.13;;
23782;SDS011;12071;50.850;4.446;2022-07-01T03:27:01;16.77;;;10.30;;
23782;SDS011;12071;50.850;4.446;2022-07-01T03:29:27;19.63;;;10.38;;
23782;SDS011;12071;50.850;4.446;2022-07-01T03:31:52;18.05;;;9.65;;
23782;SDS011;12071;50.850;4.446;2022-07-01T03:34:18;19.33;;;10.07;;
23782;SDS011;12071;50.850;4.446;2022-07-01T03:36:44;21.13;;;10.82;;
23782;SDS011;12071;50.850;4.446;2022-07-01T03:39:09;21.17;;;12.32;;
23782;SDS011;12071;50.850;4.446;2022-07-01T03:41:35;24.15;;;14.02;;
23782;SDS011;12071;50.850;4.446;2022-07-01T03:44:00;25.17;;;15.70;;
23782;SDS011;12071;50.850;4.446;2022-07-01T03:46:26;27.85;;;16.00;;
23782;SDS011;12071;50.850;4.446;2022-07-01T03:48:55;26.67;;;15.45;;
23782;SDS011;12071;50.850;4.446;2022-07-01T03:51:21;26.90;;;14.95;;
23782;SDS011;12071;50.850;4.446;2022-07-01T03:53:46;24.17;;;15.60;;
23782;SDS011;12071;50.850;4.446;2022-07-01T03:56:30;31.58;;;16.25;;
23782;SDS011;12071;50.850;4.446;2022-07-01T03:58:56;25.83;;;17.42;;
23782;SDS011;12071;50.850;4.446;2022-07-01T04:01:21;25.90;;;16.77;;
23782;SDS011;12071;50.850;4.446;2022-07-01T04:03:47;23.15;;;16.08;;
23782;SDS011;12071;50.850;4.446;2022-07-01T04:06:13;25.63;;;16.25;;
23782;SDS011;12071;50.850;4.446;2022-07-01T04:08:38;23.25;;;15.77;;
23782;SDS011;12071;50.850;4.446;2022-07-01T04:11:04;23.52;;;15.63;;
23782;SDS011;12071;50.850;4.446;2022-07-01T04:13:33;23.90;;;14.70;;
23782;SDS011;12071;50.850;4.446;2022-07-01T04:15:59;20.85;;;12.90;;
23782;SDS011;12071;50.850;4.446;2022-07-01T04:18:25;26.63;;;14.63;;
23782;SDS011;12071;50.850;4.446;2022-07-01T04:20:52;22.38;;;12.13;;
23782;SDS011;12071;50.850;4.446;2022-07-01T04:23:36;18.25;;;12.07;;
23782;SDS011;12071;50.850;4.446;2022-07-01T04:26:02;17.02;;;11.27;;
23782;SDS011;12071;50.850;4.446;2022-07-01T04:28:28;18.10;;;10.98;;
23782;SDS011;12071;50.850;4.446;2022-07-01T04:30:53;17.10;;;10.70;;
23782;SDS011;12071;50.850;4.446;2022-07-01T04:33:19;18.25;;;9.82;;
23782;SDS011;12071;50.850;4.446;2022-07-01T04:35:44;16.80;;;9.60;;
23782;SDS011;12071;50.850;4.446;2022-07-01T04:38:10;17.90;;;9.63;;
23782;SDS011;12071;50.850;4.446;2022-07-01T04:40:36;17.48;;;8.82;;
23782;SDS011;12071;50.850;4.446;2022-07-01T04:43:01;17.48;;;8.15;;
23782;SDS011;12071;50.850;4.446;2022-07-01T04:45:27;18.40;;;8.30;;
23782;SDS011;12071;50.850;4.446;2022-07-01T04:47:52;15.77;;;8.20;;
23782;SDS011;12071;50.850;4.446;2022-07-01T04:50:18;11.57;;;7.85;;
23782;SDS011;12071;50.850;4.446;2022-07-01T04:52:44;13.55;;;7.57;;
23782;SDS011;12071;50.850;4.446;2022-07-01T04:55:09;14.43;;;7.53;;
23782;SDS011;12071;50.850;4.446;2022-07-01T04:57:35;18.13;;;7.65;;
23782;SDS011;12071;50.850;4.446;2022-07-01T05:00:00;18.50;;;7.97;;
23782;SDS011;12071;50.850;4.446;2022-07-01T05:02:26;13.30;;;8.02;;
23782;SDS011;12071;50.850;4.446;2022-07-01T05:04:52;12.43;;;7.60;;
23782;SDS011;12071;50.850;4.446;2022-07-01T05:07:19;16.90;;;7.47;;
23782;SDS011;12071;50.850;4.446;2022-07-01T05:09:56;12.52;;;7.00;;
23782;SDS011;12071;50.850;4.446;2022-07-01T05:12:23;12.25;;;7.13;;
23782;SDS011;12071;50.850;4.446;2022-07-01T05:14:50;9.20;;;6.38;;
23782;SDS011;12071;50.850;4.446;2022-07-01T05:17:15;13.10;;;6.35;;
23782;SDS011;12071;50.850;4.446;2022-07-01T05:19:41;8.73;;;5.72;;
23782;SDS011;12071;50.850;4.446;2022-07-01T05:22:25;13.43;;;5.97;;
23782;SDS011;12071;50.850;4.446;2022-07-01T05:24:51;9.95;;;5.63;;
23782;SDS011;12071;50.850;4.446;2022-07-01T05:27:16;11.73;;;5.72;;
23782;SDS011;12071;50.850;4.446;2022-07-01T05:29:42;9.23;;;5.20;;
23782;SDS011;12071;50.850;4.446;2022-07-01T05:32:08;10.80;;;4.82;;
23782;SDS011;12071;50.850;4.446;2022-07-01T05:34:33;13.63;;;5.68;;
23782;SDS011;12071;50.850;4.446;2022-07-01T05:37:01;8.75;;;5.18;;
23782;SDS011;12071;50.850;4.446;2022-07-01T05:39:26;10.02;;;5.13;;
23782;SDS011;12071;50.850;4.446;2022-07-01T05:41:52;15.85;;;5.30;;
23782;SDS011;12071;50.850;4.446;2022-07-01T05:44:17;11.02;;;5.90;;
23782;SDS011;12071;50.850;4.446;2022-07-01T05:46:43;10.65;;;5.53;;
23782;SDS011;12071;50.850;4.446;2022-07-01T05:49:09;13.95;;;5.70;;
23782;SDS011;12071;50.850;4.446;2022-07-01T05:51:34;10.07;;;5.68;;
23782;SDS011;12071;50.850;4.446;2022-07-01T05:54:00;10.40;;;4.72;;
23782;SDS011;12071;50.850;4.446;2022-07-01T05:56:27;11.27;;;5.10;;
23782;SDS011;12071;50.850;4.446;2022-07-01T05:58:53;13.68;;;4.95;;
23782;SDS011;12071;50.850;4.446;2022-07-01T06:01:19;12.25;;;5.32;;
23782;SDS011;12071;50.850;4.446;2022-07-01T06:03:45;13.68;;;6.55;;
23782;SDS011;12071;50.850;4.446;2022-07-01T06:06:10;14.23;;;5.40;;
23782;SDS011;12071;50.850;4.446;2022-07-01T06:08:36;10.32;;;5.32;;
23782;SDS011;12071;50.850;4.446;2022-07-01T06:11:01;11.68;;;4.10;;
23782;SDS011;12071;50.850;4.446;2022-07-01T06:13:28;11.40;;;4.68;;
23782;SDS011;12071;50.850;4.446;2022-07-01T06:15:55;10.00;;;4.55;;
23782;SDS011;12071;50.850;4.446;2022-07-01T06:18:24;7.32;;;3.88;;
23782;SDS011;12071;50.850;4.446;2022-07-01T06:20:50;15.27;;;4.97;;
23782;SDS011;12071;50.850;4.446;2022-07-01T06:23:16;15.18;;;5.22;;
23782;SDS011;12071;50.850;4.446;2022-07-01T06:25:41;12.65;;;4.78;;
23782;SDS011;12071;50.850;4.446;2022-07-01T06:28:07;6.40;;;3.80;;
23782;SDS011;12071;50.850;4.446;2022-07-01T06:30:33;12.63;;;4.03;;
23782;SDS011;12071;50.850;4.446;2022-07-01T06:32:59;9.93;;;2.88;;
23782;SDS011;12071;50.850;4.446;2022-07-01T06:35:24;6.82;;;2.70;;
23782;SDS011;12071;50.850;4.446;2022-07-01T06:37:50;4.95;;;2.55;;
23782;SDS011;12071;50.850;4.446;2022-07-01T06:40:16;8.00;;;3.17;;
23782;SDS011;12071;50.850;4.446;2022-07-01T06:42:41;8.05;;;2.85;;
23782;SDS011;12071;50.850;4.446;2022-07-01T06:45:07;6.18;;;2.67;;
23782;SDS011;12071;50.850;4.446;2022-07-01T06:47:33;10.27;;;2.25;;
23782;SDS011;12071;50.850;4.446;2022-07-01T06:49:59;11.43;;;2.50;;
23782;SDS011;12071;50.850;4.446;2022-07-01T06:52:24;6.45;;;2.10;;
23782;SDS011;12071;50.850;4.446;2022-07-01T06:54:50;6.78;;;2.40;;
23782;SDS011;12071;50.850;4.446;2022-07-01T06:57:16;7.55;;;2.47;;
23782;SDS011;12071;50.850;4.446;2022-07-01T06:59:41;6.25;;;2.00;;
23782;SDS011;12071;50.850;4.446;2022-07-01T07:02:07;7.32;;;2.88;;
23782;SDS011;12071;50.850;4.446;2022-07-01T07:04:33;9.73;;;2.25;;
23782;SDS011;12071;50.850;4.446;2022-07-01T07:07:00;6.30;;;2.13;;
23782;SDS011;12071;50.850;4.446;2022-07-01T07:09:25;9.57;;;2.65;;
23782;SDS011;12071;50.850;4.446;2022-07-01T07:11:51;9.43;;;2.38;;
23782;SDS011;12071;50.850;4.446;2022-07-01T07:14:20;8.57;;;2.58;;
23782;SDS011;12071;50.850;4.446;2022-07-01T07:16:45;9.85;;;2.25;;
23782;SDS011;12071;50.850;4.446;2022-07-01T07:19:11;7.50;;;2.08;;
23782;SDS011;12071;50.850;4.446;2022-07-01T07:21:37;9.55;;;1.77;;
23782;SDS011;12071;50.850;4.446;2022-07-01T07:24:02;8.65;;;1.60;;
23782;SDS011;12071;50.850;4.446;2022-07-01T07:26:28;6.47;;;1.40;;
23782;SDS011;12071;50.850;4.446;2022-07-01T07:28:54;6.22;;;1.65;;
23782;SDS011;12071;50.850;4.446;2022-07-01T07:31:19;5.32;;;1.52;;
23782;SDS011;12071;50.850;4.446;2022-07-01T07:33:45;9.00;;;2.03;;
23782;SDS011;12071;50.850;4.446;2022-07-01T07:36:10;9.30;;;1.75;;
23782;SDS011;12071;50.850;4.446;2022-07-01T07:38:37;9.02;;;1.70;;
23782;SDS011;12071;50.850;4.446;2022-07-01T07:41:07;5.72;;;1.20;;
23782;SDS011;12071;50.850;4.446;2022-07-01T07:43:35;6.18;;;1.52;;
23782;SDS011;12071;50.850;4.446;2022-07-01T07:46:10;5.07;;;1.48;;
23782;SDS011;12071;50.850;4.446;2022-07-01T07:48:36;9.95;;;1.20;;
23782;SDS011;12071;50.850;4.446;2022-07-01T07:51:02;2.13;;;0.90;;
23782;SDS011;12071;50.850;4.446;2022-07-01T07:53:27;5.70;;;1.55;;
23782;SDS011;12071;50.850;4.446;2022-07-01T07:55:53;10.80;;;1.65;;
23782;SDS011;12071;50.850;4.446;2022-07-01T07:58:19;6.78;;;1.35;;
23782;SDS011;12071;50.850;4.446;2022-07-01T08:00:44;6.40;;;1.63;;
23782;SDS011;12071;50.850;4.446;2022-07-01T08:03:10;7.10;;;1.65;;
23782;SDS011;12071;50.850;4.446;2022-07-01T08:05:35;10.10;;;1.33;;
23782;SDS011;12071;50.850;4.446;2022-07-01T08:08:01;7.90;;;1.58;;
23782;SDS011;12071;50.850;4.446;2022-07-01T08:10:27;4.82;;;1.00;;
23782;SDS011;12071;50.850;4.446;2022-07-01T08:12:52;6.20;;;1.17;;
23782;SDS011;12071;50.850;4.446;2022-07-01T08:15:21;3.97;;;0.80;;
23782;SDS011;12071;50.850;4.446;2022-07-01T08:17:47;6.20;;;1.20;;
23782;SDS011;12071;50.850;4.446;2022-07-01T08:20:13;6.75;;;1.23;;
23782;SDS011;12071;50.850;4.446;2022-07-01T08:22:41;6.95;;;1.02;;
23782;SDS011;12071;50.850;4.446;2022-07-01T08:25:07;3.97;;;1.00;;
23782;SDS011;12071;50.850;4.446;2022-07-01T08:27:33;3.35;;;1.10;;
23782;SDS011;12071;50.850;4.446;2022-07-01T08:29:58;4.00;;;0.80;;
23782;SDS011;12071;50.850;4.446;2022-07-01T08:32:24;4.65;;;0.90;;
23782;SDS011;12071;50.850;4.446;2022-07-01T08:34:51;4.95;;;0.80;;
23782;SDS011;12071;50.850;4.446;2022-07-01T08:37:16;5.50;;;1.05;;
23782;SDS011;12071;50.850;4.446;2022-07-01T08:39:42;4.70;;;1.00;;
23782;SDS011;12071;50.850;4.446;2022-07-01T08:42:08;4.43;;;0.70;;
23782;SDS011;12071;50.850;4.446;2022-07-01T08:44:33;4.25;;;1.13;;
23782;SDS011;12071;50.850;4.446;2022-07-01T08:46:59;7.53;;;1.38;;
23782;SDS011;12071;50.850;4.446;2022-07-01T08:49:25;3.78;;;1.00;;
23782;SDS011;12071;50.850;4.446;2022-07-01T08:51:50;7.72;;;1.10;;
23782;SDS011;12071;50.850;4.446;2022-07-01T08:54:16;5.43;;;0.95;;
23782;SDS011;12071;50.850;4.446;2022-07-01T08:56:42;3.92;;;0.95;;
23782;SDS011;12071;50.850;4.446;2022-07-01T08:59:12;5.03;;;0.90;;
23782;SDS011;12071;50.850;4.446;2022-07-01T09:01:38;5.50;;;1.02;;
23782;SDS011;12071;50.850;4.446;2022-07-01T09:04:16;5.90;;;1.00;;
23782;SDS011;12071;50.850;4.446;2022-07-01T09:06:42;5.70;;;1.05;;
23782;SDS011;12071;50.850;4.446;2022-07-01T09:09:15;2.92;;;0.50;;
23782;SDS011;12071;50.850;4.446;2022-07-01T09:11:51;3.38;;;0.90;;
23782;SDS011;12071;50.850;4.446;2022-07-01T09:14:22;7.20;;;0.90;;
23782;SDS011;12071;50.850;4.446;2022-07-01T09:19:20;4.50;;;0.90;;
23782;SDS011;12071;50.850;4.446;2022-07-01T09:21:48;4.10;;;1.10;;
23782;SDS011;12071;50.850;4.446;2022-07-01T09:24:22;6.60;;;1.10;;
23782;SDS011;12071;50.850;4.446;2022-07-01T09:27:05;6.28;;;1.10;;
23782;SDS011;12071;50.850;4.446;2022-07-01T09:29:46;4.97;;;1.10;;
23782;SDS011;12071;50.850;4.446;2022-07-01T09:32:16;3.42;;;0.85;;
23782;SDS011;12071;50.850;4.446;2022-07-01T09:34:44;4.90;;;1.25;;
23782;SDS011;12071;50.850;4.446;2022-07-01T09:37:15;8.48;;;1.20;;
23782;SDS011;12071;50.850;4.446;2022-07-01T09:39:47;3.25;;;1.00;;
23782;SDS011;12071;50.850;4.446;2022-07-01T09:42:14;5.88;;;1.10;;
23782;SDS011;12071;50.850;4.446;2022-07-01T09:45:02;2.97;;;1.10;;
23782;SDS011;12071;50.850;4.446;2022-07-01T09:47:36;4.43;;;1.50;;
23782;SDS011;12071;50.850;4.446;2022-07-01T09:50:05;4.88;;;1.10;;
23782;SDS011;12071;50.850;4.446;2022-07-01T09:52:32;2.60;;;1.00;;
23782;SDS011;12071;50.850;4.446;2022-07-01T09:54:58;4.10;;;1.20;;
23782;SDS011;12071;50.850;4.446;2022-07-01T09:57:24;5.78;;;1.52;;
23782;SDS011;12071;50.850;4.446;2022-07-01T09:59:50;2.60;;;1.23;;
23782;SDS011;12071;50.850;4.446;2022-07-01T10:02:19;3.42;;;1.38;;
23782;SDS011;12071;50.850;4.446;2022-07-01T10:05:08;5.15;;;1.45;;
23782;SDS011;12071;50.850;4.446;2022-07-01T10:13:02;3.97;;;1.67;;
23782;SDS011;12071;50.850;4.446;2022-07-01T10:15:29;5.85;;;1.70;;
23782;SDS011;12071;50.850;4.446;2022-07-01T10:17:56;2.92;;;1.40;;
23782;SDS011;12071;50.850;4.446;2022-07-01T10:22:59;3.22;;;1.55;;
23782;SDS011;12071;50.850;4.446;2022-07-01T10:25:40;3.95;;;1.52;;
23782;SDS011;12071;50.850;4.446;2022-07-01T10:28:29;4.18;;;1.35;;
23782;SDS011;12071;50.850;4.446;2022-07-01T10:31:09;2.33;;;1.13;;
23782;SDS011;12071;50.850;4.446;2022-07-01T10:41:27;5.10;;;1.23;;
23782;SDS011;12071;50.850;4.446;2022-07-01T10:44:16;4.47;;;1.38;;
23782;SDS011;12071;50.850;4.446;2022-07-01T10:49:10;4.10;;;1.10;;
23782;SDS011;12071;50.850;4.446;2022-07-01T10:51:56;5.20;;;1.20;;
23782;SDS011;12071;50.850;4.446;2022-07-01T10:59:42;5.57;;;1.20;;
23782;SDS011;12071;50.850;4.446;2022-07-01T11:02:12;2.42;;;0.90;;
23782;SDS011;12071;50.850;4.446;2022-07-01T11:04:42;5.10;;;1.17;;
23782;SDS011;12071;50.850;4.446;2022-07-01T11:07:08;3.60;;;0.90;;
23782;SDS011;12071;50.850;4.446;2022-07-01T11:09:34;4.97;;;1.10;;
23782;SDS011;12071;50.850;4.446;2022-07-01T11:12:00;3.50;;;1.00;;
23782;SDS011;12071;50.850;4.446;2022-07-01T11:14:27;3.03;;;1.02;;
23782;SDS011;12071;50.850;4.446;2022-07-01T11:16:53;5.72;;;1.40;;
23782;SDS011;12071;50.850;4.446;2022-07-01T11:19:20;3.33;;;1.00;;
23782;SDS011;12071;50.850;4.446;2022-07-01T11:21:49;3.60;;;1.20;;
23782;SDS011;12071;50.850;4.446;2022-07-01T11:24:19;2.67;;;1.00;;
23782;SDS011;12071;50.850;4.446;2022-07-01T11:26:45;3.08;;;0.95;;
23782;SDS011;12071;50.850;4.446;2022-07-01T11:29:19;2.35;;;0.90;;
23782;SDS011;12071;50.850;4.446;2022-07-01T11:31:52;3.22;;;1.00;;
23782;SDS011;12071;50.850;4.446;2022-07-01T11:34:18;2.83;;;1.00;;
23782;SDS011;12071;50.850;4.446;2022-07-01T11:36:45;3.13;;;0.70;;
23782;SDS011;12071;50.850;4.446;2022-07-01T11:39:30;2.25;;;0.80;;
23782;SDS011;12071;50.850;4.446;2022-07-01T11:42:02;1.90;;;0.90;;
23782;SDS011;12071;50.850;4.446;2022-07-01T11:46:56;2.25;;;1.00;;
23782;SDS011;12071;50.850;4.446;2022-07-01T11:49:21;4.28;;;0.80;;
23782;SDS011;12071;50.850;4.446;2022-07-01T11:51:58;2.75;;;0.40;;
23782;SDS011;12071;50.850;4.446;2022-07-01T11:54:30;3.28;;;0.60;;
23782;SDS011;12071;50.850;4.446;2022-07-01T11:57:19;1.30;;;0.77;;
23782;SDS011;12071;50.850;4.446;2022-07-01T11:59:50;3.00;;;0.60;;
23782;SDS011;12071;50.850;4.446;2022-07-01T12:02:17;2.70;;;0.73;;
23782;SDS011;12071;50.850;4.446;2022-07-01T12:04:46;4.03;;;0.60;;
23782;SDS011;12071;50.850;4.446;2022-07-01T12:07:13;2.15;;;0.40;;
23782;SDS011;12071;50.850;4.446;2022-07-01T12:09:40;1.75;;;0.65;;
23782;SDS011;12071;50.850;4.446;2022-07-01T12:12:06;1.25;;;0.57;;
23782;SDS011;12071;50.850;4.446;2022-07-01T12:14:33;3.00;;;0.47;;
23782;SDS011;12071;50.850;4.446;2022-07-01T12:17:03;2.22;;;0.60;;
23782;SDS011;12071;50.850;4.446;2022-07-01T12:22:13;2.05;;;0.55;;
23782;SDS011;12071;50.850;4.446;2022-07-01T12:24:46;3.17;;;0.70;;
23782;SDS011;12071;50.850;4.446;2022-07-01T12:27:13;2.95;;;0.70;;
23782;SDS011;12071;50.850;4.446;2022-07-01T12:32:10;1.05;;;0.40;;
23782;SDS011;12071;50.850;4.446;2022-07-01T12:37:17;2.80;;;0.50;;
23782;SDS011;12071;50.850;4.446;2022-07-01T12:42:23;2.40;;;0.60;;
23782;SDS011;12071;50.850;4.446;2022-07-01T12:44:50;1.52;;;0.40;;
23782;SDS011;12071;50.850;4.446;2022-07-01T12:47:26;4.75;;;0.80;;
23782;SDS011;12071;50.850;4.446;2022-07-01T12:52:36;1.77;;;0.50;;
23782;SDS011;12071;50.850;4.446;2022-07-01T12:55:12;3.75;;;0.60;;
23782;SDS011;12071;50.850;4.446;2022-07-01T12:57:38;3.58;;;0.63;;
23782;SDS011;12071;50.850;4.446;2022-07-01T13:00:04;6.75;;;1.10;;
23782;SDS011;12071;50.850;4.446;2022-07-01T13:02:30;3.00;;;0.60;;
23782;SDS011;12071;50.850;4.446;2022-07-01T13:04:56;4.22;;;0.50;;
23782;SDS011;12071;50.850;4.446;2022-07-01T13:07:22;2.25;;;0.63;;
23782;SDS011;12071;50.850;4.446;2022-07-01T13:09:47;3.00;;;0.90;;
23782;SDS011;12071;50.850;4.446;2022-07-01T13:12:13;1.38;;;0.50;;
23782;SDS011;12071;50.850;4.446;2022-07-01T13:14:39;6.75;;;0.73;;
23782;SDS011;12071;50.850;4.446;2022-07-01T13:17:10;5.82;;;1.00;;
23782;SDS011;12071;50.850;4.446;2022-07-01T13:19:36;1.42;;;0.40;;
23782;SDS011;12071;50.850;4.446;2022-07-01T13:22:02;1.17;;;0.40;;
23782;SDS011;12071;50.850;4.446;2022-07-01T13:24:28;3.20;;;0.57;;
23782;SDS011;12071;50.850;4.446;2022-07-01T13:26:54;1.95;;;0.45;;
23782;SDS011;12071;50.850;4.446;2022-07-01T13:29:20;2.17;;;0.65;;
23782;SDS011;12071;50.850;4.446;2022-07-01T13:31:45;3.90;;;0.68;;
23782;SDS011;12071;50.850;4.446;2022-07-01T13:34:11;1.55;;;0.50;;
23782;SDS011;12071;50.850;4.446;2022-07-01T13:36:37;3.53;;;0.50;;
23782;SDS011;12071;50.850;4.446;2022-07-01T13:39:02;2.47;;;0.40;;
23782;SDS011;12071;50.850;4.446;2022-07-01T13:41:28;1.92;;;0.40;;
23782;SDS011;12071;50.850;4.446;2022-07-01T13:43:53;4.10;;;0.77;;
23782;SDS011;12071;50.850;4.446;2022-07-01T13:46:19;2.22;;;0.40;;
23782;SDS011;12071;50.850;4.446;2022-07-01T13:48:45;2.05;;;0.40;;
23782;SDS011;12071;50.850;4.446;2022-07-01T13:51:11;4.40;;;0.50;;
23782;SDS011;12071;50.850;4.446;2022-07-01T13:53:36;3.28;;;0.50;;
23782;SDS011;12071;50.850;4.446;2022-07-01T13:56:02;3.25;;;0.45;;
23782;SDS011;12071;50.850;4.446;2022-07-01T13:58:28;2.78;;;0.57;;
23782;SDS011;12071;50.850;4.446;2022-07-01T14:00:54;1.05;;;0.52;;
23782;SDS011;12071;50.850;4.446;2022-07-01T14:03:20;4.05;;;0.85;;
23782;SDS011;12071;50.850;4.446;2022-07-01T14:05:46;1.55;;;0.40;;
23782;SDS011;12071;50.850;4.446;2022-07-01T14:08:12;3.05;;;0.60;;
23782;SDS011;12071;50.850;4.446;2022-07-01T14:10:37;3.00;;;0.60;;
23782;SDS011;12071;50.850;4.446;2022-07-01T14:13:05;1.83;;;0.60;;
23782;SDS011;12071;50.850;4.446;2022-07-01T14:15:31;2.25;;;0.47;;
23782;SDS011;12071;50.850;4.446;2022-07-01T14:17:56;3.28;;;0.50;;
23782;SDS011;12071;50.850;4.446;2022-07-01T14:20:22;2.90;;;0.70;;
23782;SDS011;12071;50.850;4.446;2022-07-01T14:22:48;2.63;;;0.57;;
23782;SDS011;12071;50.850;4.446;2022-07-01T14:25:13;2.47;;;0.47;;
23782;SDS011;12071;50.850;4.446;2022-07-01T14:27:39;5.18;;;0.60;;
23782;SDS011;12071;50.850;4.446;2022-07-01T14:30:05;2.65;;;0.70;;
23782;SDS011;12071;50.850;4.446;2022-07-01T14:32:31;2.92;;;0.57;;
23782;SDS011;12071;50.850;4.446;2022-07-01T14:34:57;2.08;;;0.68;;
23782;SDS011;12071;50.850;4.446;2022-07-01T14:37:22;1.83;;;0.65;;
23782;SDS011;12071;50.850;4.446;2022-07-01T14:39:48;1.75;;;0.60;;
23782;SDS011;12071;50.850;4.446;2022-07-01T14:42:20;1.48;;;0.47;;
23782;SDS011;12071;50.850;4.446;2022-07-01T14:44:46;3.28;;;0.47;;
23782;SDS011;12071;50.850;4.446;2022-07-01T14:47:14;4.15;;;0.70;;
23782;SDS011;12071;50.850;4.446;2022-07-01T14:49:40;1.65;;;0.47;;
23782;SDS011;12071;50.850;4.446;2022-07-01T14:52:05;4.28;;;0.82;;
23782;SDS011;12071;50.850;4.446;2022-07-01T14:54:31;3.00;;;0.88;;
23782;SDS011;12071;50.850;4.446;2022-07-01T14:56:57;2.53;;;0.60;;
23782;SDS011;12071;50.850;4.446;2022-07-01T14:59:22;2.30;;;0.57;;
23782;SDS011;12071;50.850;4.446;2022-07-01T15:01:48;3.05;;;0.50;;
23782;SDS011;12071;50.850;4.446;2022-07-01T15:04:14;3.38;;;0.73;;
23782;SDS011;12071;50.850;4.446;2022-07-01T15:06:39;2.75;;;0.80;;
23782;SDS011;12071;50.850;4.446;2022-07-01T15:09:05;4.05;;;0.55;;
23782;SDS011;12071;50.850;4.446;2022-07-01T15:11:31;3.60;;;0.50;;
23782;SDS011;12071;50.850;4.446;2022-07-01T15:13:58;5.28;;;0.50;;
23782;SDS011;12071;50.850;4.446;2022-07-01T15:16:24;5.35;;;0.60;;
23782;SDS011;12071;50.850;4.446;2022-07-01T15:18:50;2.88;;;0.60;;
23782;SDS011;12071;50.850;4.446;2022-07-01T15:21:17;2.58;;;0.63;;
23782;SDS011;12071;50.850;4.446;2022-07-01T15:23:44;3.47;;;0.73;;